Jump to content

[CNN] B738 crashes on approach to Russian airport, officials say


B737-8EH

Recommended Posts

(CNN)A Boeing 738 passenger jet crashed as it was landing at the Rostov-on-Don airport in southern Russia, the country's Southern Regional Emergency Center said Saturday.

 

The plane, which had traveled from Dubai, had 55 people aboard, the Emergency Center said.

 

It wasn't immediately clear if there were any survivors.

 

Developing story - more to come

 

http://edition.cnn.com/2016/03/18/europe/russia-plane-crash/index.html

Link to comment
Share on other sites

  • Replies 97
  • Created
  • Last Reply

FLYDUBAI JET WITH 59 ON BOARD CRASHES ON LANDING IN ROSTOV-ON-DON

 

Published time: 19 Mar, 2016 01:27

Edited time: 19 Mar, 2016 02:08

 

Flydubai flight FZ981 has crashed in the southern Russian city of Rostov-on-Don killing all 59 passengers and crew on board. The flight was en route from Dubai and crashed during a landing approach.

Air-traffic control and local emergency services confirmed that the Boeing 737-800 jet crashed near the runway during a second approach in conditions of poor visibility.

 

According to preliminary data, the Boeing 738 crashed in poor visibility conditions, some 50-100 meters left of the runway, the source said.

 

The plane, according to preliminary data, crashed during the second approach, the source told Interfax.

 

All crew and passengers on board the plane were killed in the crash, according to the regional Emergencies Ministry.

 

During the landing approach a Boeing-737 crashed. It had 55 passengers on board. All of them died, a regional spokesman told TASS.

 

Fonte:https://www.rt.com/news/336185-boeing-crash-dubai-rostov/

Link to comment
Share on other sites

Vi relatos na imprensa russa que a aeronave estava em chamas antes de cair.

 

Cheguei a ignorar porquê eu sei que toda vez quando cai um avião, uma testemunha sempre diz que o avião estava em chamas antes de cair. É meio psicológico isso.

 

Mas o vídeo só reforça esta suspeita,embora a luz que aparace no vídeo antes do avião cair também pode ser uma luz do avião.

Link to comment
Share on other sites

Tenho alguns amigos e colegas voando na Flydubai. Alguns estão incomunicáveis no momento.

 

Torcendo pelo melhor. Lamento pelas vítimas e vidas perdidas.

 

Vale ressaltar que os 737 da FlyDubai são equipados com HUD e outras tecnologias que incrementam a segurança do voo. Certamente, desvendar este acidente será importante para entender a disparidade entre uma máquina segura, nova e de uma empresa confiabilíssima com um acidente onde, de acordo com o vídeo, a aeronave mergulha em direção ao solo.

Link to comment
Share on other sites

Vi relatos na imprensa russa que a aeronave estava em chamas antes de cair.

 

Cheguei a ignorar porquê eu sei que toda vez quando cai um avião, uma testemunha sempre diz que o avião estava em chamas antes de cair. É meio psicológico isso.

 

Mas o vídeo só reforça esta suspeita,embora a luz que aparace no vídeo antes do avião cair também pode ser uma luz do avião.

 

Não sei se são chamas não....creio que sejam as luzes da aeronave mesmo....

Link to comment
Share on other sites

 

Não sei se são chamas não....creio que sejam as luzes da aeronave mesmo....

 

Pois é! Também há esta possibilidade. Só estou dizendo o que as testemunhas disseram.

Link to comment
Share on other sites

Tenho alguns amigos e colegas voando na Flydubai. Alguns estão incomunicáveis no momento.

 

Torcendo pelo melhor. Lamento pelas vítimas e vidas perdidas.

 

Vale ressaltar que os 737 da FlyDubai são equipados com HUD e outras tecnologias que incrementam a segurança do voo. Certamente, desvendar este acidente será importante para entender a disparidade entre uma máquina segura, nova e de uma empresa confiabilíssima com um acidente onde, de acordo com o vídeo, a aeronave mergulha em direção ao solo.

Primeiras informações são de que os tripulantes técnicos não são brasileiros.
Link to comment
Share on other sites

URRR 182230Z 25011G17MPS 4200 -SHRA SCT016 BKN033CB OVC100 06/03 Q1000 R22/290046 TEMPO 25015G20MPS 1000 SHRA BR SCT003 BKN020CB RMK QFE742/0990
URRR 182200Z 25011MPS 5000 -SHRA SCT013 BKN033CB OVC100 06/04 Q1000 WS R22 R22/290046 TEMPO 25013G18MPS 1000 SHRA BR SCT003 BKN020CB RMK QFE742/0990
URRR 182130Z 25009G15MPS 220V280 5000 -SHRA SCT013 BKN030CB OVC100 06/03 Q1000 R22/290046 TEMPO 25013G18MPS 1000 SHRA BR SCT003 BKN020CB RMK QFE743/0990
URRR 182100Z 25008MPS 7000 -SHRA SCT011 BKN033CB OVC100 06/03 Q1000 R22/290057 TEMPO 25013G18MPS 1000 SHRA BR SCT003 BKN020CB RMK QFE743/0990
URRR 182030Z 24008MPS 6000 -SHRA SCT016 SCT033CB OVC100 06/03 Q1001 R22/290057 TEMPO 25013G18MPS 1000 SHRA BR SCT003 BKN020CB RMK QFE743/0991
URRR 182000Z 25007MPS 7000 -SHRA SCT017 SCT036CB OVC100 07/03 Q1001 R22/290057 TEMPO 25013G18MPS 1000 SHRA BR SCT003 BKN020CB RMK QFE743/0991
URRR 181930Z 25008MPS 8000 -SHRA SCT019 BKN040CB OVC100 07/03 Q1001 R22/290057 TEMPO 25013G18MPS 1000 SHRA BR SCT003 BKN020CB RMK QFE743/0991
URRR 181900Z 25008MPS P8000 SCT016 BKN040CB OVC100 06/03 Q1002 R22/290057 TEMPO 25013G18MPS 1000 SHRA BR SCT003 BKN020CB RMK QFE744/0992

 

 

Tempo ruim no momento.....no metar das 22z após o ocorrido aparece o aviso de WS...

A primeira aproximação foi s 19:40z...a segunda só as 21:37z...de acordo com o FR24

Link to comment
Share on other sites

Pessoal, independente qual é a nacinalidade dos passageiros tripulação, pais fabricante da aeronave e o local que se acidentou, é necessário uma investigação para apurar os fatos, já sabemos que as condições meteorológicas não eram boas. Então aguardaremos o relatório final para criar métodos para que esse tipo na acidente não ocorra mais.

Link to comment
Share on other sites

Pela imagem ,a princípio, está parecendo Stall seguido de um Upset sem possibilidade de recuperação

Link to comment
Share on other sites

O 737 ficou inteiramente fragmentado, com os destroços espalhados por uma grande área, olhando as fotos não daria para dizer nem de qual empresa era a aeronave tamanha foi a destruição. Lamento pelo ocorrido, e espero o relatório final para que possamos tirar aprendizado da situação.

 

 

 

Abraços

Link to comment
Share on other sites

Archived

This topic is now archived and is closed to further replies.


×
×
  • Create New...

Important Information

Saiba os termos, regras e políticas de privacidade